createdAt,value
2019-02-25T00:02:46.217Z,5.42
2019-02-25T00:05:48.771Z,5.34
2019-02-25T00:08:51.552Z,5.34
2019-02-25T00:11:54.112Z,5.42
2019-02-25T00:14:56.672Z,5.55
2019-02-25T00:17:59.241Z,5.62
2019-02-25T00:21:01.840Z,5.85
2019-02-25T00:24:04.912Z,5.83
2019-02-25T00:27:07.420Z,5.81
2019-02-25T00:30:13.855Z,6.19
2019-02-25T00:33:16.426Z,6.02
2019-02-25T00:36:19.187Z,6.21
2019-02-25T00:39:21.798Z,6.91
2019-02-25T00:42:24.580Z,6.29
2019-02-25T00:45:27.204Z,6.40
2019-02-25T00:48:29.867Z,6.29
2019-02-25T00:51:32.483Z,5.98
2019-02-25T00:54:35.081Z,5.92
2019-02-25T00:57:37.724Z,5.83
2019-02-25T01:00:40.291Z,6.04
2019-02-25T01:03:42.907Z,5.90
2019-02-25T01:06:45.627Z,6.04
2019-02-25T01:09:50.745Z,6.26
2019-02-25T01:12:53.325Z,6.11
2019-02-25T01:15:57.480Z,5.97
2019-02-25T01:19:00.118Z,6.55
2019-02-25T01:22:06.926Z,6.17
2019-02-25T01:25:09.988Z,6.25
2019-02-25T01:28:15.077Z,6.24
2019-02-25T01:31:17.706Z,6.06
2019-02-25T01:34:27.853Z,6.02
2019-02-25T01:37:30.474Z,6.02
2019-02-25T01:40:33.128Z,5.84
2019-02-25T01:43:35.741Z,5.56
2019-02-25T01:46:39.491Z,5.84
2019-02-25T01:49:42.254Z,5.51
2019-02-25T01:52:44.796Z,5.23
2019-02-25T01:55:47.463Z,5.20
2019-02-25T01:58:50.010Z,5.56
2019-02-25T02:01:52.575Z,5.35
2019-02-25T02:04:55.141Z,5.02
2019-02-25T02:07:57.726Z,4.81
2019-02-25T02:11:00.500Z,4.76
2019-02-25T02:14:03.325Z,4.80
2019-02-25T02:17:05.873Z,4.74
2019-02-25T02:20:09.841Z,4.90
2019-02-25T02:23:12.474Z,4.92
2019-02-25T02:26:16.321Z,4.83
2019-02-25T02:29:20.784Z,4.60
2019-02-25T02:32:23.529Z,4.57
2019-02-25T02:35:26.209Z,4.67
2019-02-25T02:38:28.884Z,4.77
2019-02-25T02:42:09.032Z,4.58
2019-02-25T02:45:38.766Z,4.79
2019-02-25T02:48:45.329Z,6.20
2019-02-25T02:51:47.923Z,5.40
2019-02-25T02:54:50.580Z,5.27
2019-02-25T02:57:53.249Z,5.16
2019-02-25T03:00:55.839Z,5.60
2019-02-25T03:03:58.485Z,5.61
2019-02-25T03:07:01.178Z,5.41
2019-02-25T03:10:05.435Z,5.03
2019-02-25T03:13:08.084Z,4.78
2019-02-25T03:16:10.867Z,4.61
2019-02-25T03:19:13.455Z,4.60
2019-02-25T03:22:16.040Z,4.67
2019-02-25T03:25:18.834Z,4.83
2019-02-25T03:28:21.634Z,5.23
2019-02-25T03:31:25.224Z,5.31
2019-02-25T03:34:28.871Z,4.87
2019-02-25T03:37:31.526Z,4.76
2019-02-25T03:40:34.361Z,4.80
2019-02-25T03:43:37.052Z,5.47
2019-02-25T03:46:39.896Z,4.84
2019-02-25T03:49:42.465Z,4.74
2019-02-25T03:52:45.099Z,4.54
2019-02-25T03:55:49.305Z,4.47
2019-02-25T03:58:51.935Z,4.42
2019-02-25T04:01:54.671Z,4.49
2019-02-25T04:04:59.141Z,4.27
2019-02-25T04:08:01.900Z,4.26
2019-02-25T04:11:04.586Z,4.29
2019-02-25T04:14:07.140Z,4.38
2019-02-25T04:17:09.732Z,4.28
2019-02-25T04:20:14.062Z,4.33
2019-02-25T04:23:16.744Z,4.30
2019-02-25T04:26:19.449Z,4.35
2019-02-25T04:29:22.102Z,4.33
2019-02-25T04:32:24.733Z,4.41
2019-02-25T04:35:27.410Z,4.49
2019-02-25T04:38:29.970Z,4.75
2019-02-25T04:41:32.629Z,5.35
2019-02-25T04:44:35.270Z,5.19
2019-02-25T04:47:37.871Z,4.77
2019-02-25T04:50:40.510Z,4.98
2019-02-25T04:53:43.276Z,4.89
2019-02-25T04:56:45.906Z,4.83
2019-02-25T04:59:48.685Z,4.83
2019-02-25T05:02:51.308Z,4.86
2019-02-25T05:05:53.889Z,4.90
2019-02-25T05:08:56.471Z,4.86
2019-02-25T05:11:59.119Z,4.79
2019-02-25T05:15:01.701Z,5.00
2019-02-25T05:18:04.358Z,4.97
2019-02-25T05:21:07.151Z,4.89
2019-02-25T05:24:09.881Z,4.75
2019-02-25T05:27:12.513Z,4.82
2019-02-25T05:30:15.182Z,4.80
2019-02-25T05:33:17.749Z,4.78
2019-02-25T05:36:20.306Z,4.92
2019-02-25T05:39:22.865Z,4.94
2019-02-25T05:42:25.529Z,4.98
2019-02-25T05:45:28.312Z,4.93
2019-02-25T05:48:31.055Z,4.98
2019-02-25T05:51:33.786Z,4.91
2019-02-25T05:54:36.571Z,4.79
2019-02-25T05:57:39.270Z,4.76
2019-02-25T06:00:42.335Z,4.97
2019-02-25T06:03:45.049Z,5.08
2019-02-25T06:06:47.582Z,4.67
2019-02-25T06:09:50.399Z,4.83
2019-02-25T06:12:54.131Z,5.19
2019-02-25T06:15:56.781Z,5.28
2019-02-25T06:18:59.351Z,5.34
2019-02-25T06:22:02.032Z,5.31
2019-02-25T06:25:05.517Z,5.19
2019-02-25T06:28:08.136Z,4.98
2019-02-25T06:31:10.846Z,4.83
2019-02-25T06:34:13.565Z,4.79
2019-02-25T06:37:16.170Z,4.96
2019-02-25T06:40:18.969Z,5.18
2019-02-25T06:43:21.610Z,5.43
2019-02-25T06:46:24.160Z,5.60
2019-02-25T06:49:26.854Z,5.52
2019-02-25T06:52:29.466Z,5.55
2019-02-25T06:55:32.116Z,5.53
2019-02-25T06:58:35.673Z,5.48
2019-02-25T07:01:39.350Z,5.65
2019-02-25T07:05:02.621Z,5.92
2019-02-25T07:08:11.033Z,6.11
2019-02-25T07:11:20.748Z,6.09
2019-02-25T07:14:38.774Z,6.22
2019-02-25T07:18:03.955Z,6.42
2019-02-25T07:21:21.859Z,6.63
2019-02-25T07:24:39.458Z,6.94
2019-02-25T07:28:16.879Z,7.27
2019-02-25T07:31:31.775Z,7.44
2019-02-25T07:34:53.898Z,7.50
2019-02-25T07:38:14.767Z,7.65
2019-02-25T07:41:34.247Z,7.83
2019-02-25T07:44:59.398Z,7.96
2019-02-25T07:48:19.590Z,8.17
2019-02-25T07:51:33.070Z,8.34
2019-02-25T07:55:01.301Z,8.34
2019-02-25T07:58:13.991Z,8.45
2019-02-25T08:01:36.048Z,8.52
2019-02-25T08:04:58.026Z,8.57
2019-02-25T08:08:15.005Z,8.60
2019-02-25T08:11:29.868Z,8.67
2019-02-25T08:15:01.218Z,8.87
2019-02-25T08:18:33.400Z,8.93
2019-02-25T08:21:47.758Z,8.97
2019-02-25T08:25:08.938Z,8.97
2019-02-25T08:28:37.192Z,9.02
2019-02-25T08:31:58.184Z,9.05
2019-02-25T08:35:29.278Z,8.94
2019-02-25T08:39:04.600Z,8.97
2019-02-25T08:42:15.729Z,9.03
2019-02-25T08:45:24.258Z,9.31
2019-02-25T08:48:40.749Z,9.31
2019-02-25T08:51:43.514Z,9.32
2019-02-25T08:54:46.068Z,9.20
2019-02-25T08:57:50.615Z,9.04
2019-02-25T09:00:53.360Z,8.85
2019-02-25T09:03:55.973Z,8.90
2019-02-25T09:06:58.578Z,8.92
2019-02-25T09:10:01.163Z,9.02
2019-02-25T09:13:05.274Z,9.16
2019-02-25T09:16:07.801Z,9.14
2019-02-25T09:19:10.494Z,9.07
2019-02-25T09:22:13.180Z,9.03
2019-02-25T09:25:15.733Z,8.88
2019-02-25T09:28:18.522Z,8.90
2019-02-25T09:31:21.267Z,9.04
2019-02-25T09:34:23.987Z,9.11
2019-02-25T09:37:27.754Z,9.21
2019-02-25T09:40:30.402Z,9.19
2019-02-25T09:43:33.105Z,9.30
2019-02-25T09:46:35.774Z,9.22
2019-02-25T09:49:38.348Z,9.31
2019-02-25T09:52:41.078Z,9.23
2019-02-25T09:55:43.756Z,9.26
2019-02-25T09:58:46.337Z,9.21
2019-02-25T10:01:49.039Z,9.19
2019-02-25T10:04:51.633Z,9.15
2019-02-25T10:07:54.380Z,9.10
2019-02-25T10:10:56.995Z,9.17
2019-02-25T10:13:59.677Z,9.21
2019-02-25T10:17:02.250Z,9.20
2019-02-25T10:20:05.575Z,9.34
2019-02-25T10:23:08.119Z,9.33
2019-02-25T10:26:10.684Z,9.48
2019-02-25T10:29:13.368Z,9.50
2019-02-25T10:32:16.013Z,9.72
2019-02-25T10:35:18.959Z,9.90
2019-02-25T10:38:21.637Z,9.76
2019-02-25T10:41:26.184Z,9.78
2019-02-25T10:44:29.710Z,9.71
2019-02-25T10:47:32.847Z,9.74
2019-02-25T10:50:35.989Z,9.80
2019-02-25T10:53:39.244Z,9.92
2019-02-25T10:56:51.576Z,10.08
2019-02-25T10:59:55.497Z,10.30
2019-02-25T11:02:58.342Z,10.58
2019-02-25T11:06:03.190Z,10.63
2019-02-25T11:09:43.976Z,10.81
2019-02-25T11:12:46.985Z,10.78
2019-02-25T11:15:50.755Z,10.89
2019-02-25T11:18:55.080Z,11.04
2019-02-25T11:21:57.876Z,11.01
2019-02-25T11:25:00.530Z,11.03
2019-02-25T11:28:05.384Z,11.13
2019-02-25T11:31:07.835Z,11.25
2019-02-25T11:34:10.630Z,11.32
2019-02-25T11:37:14.472Z,11.42
2019-02-25T11:40:17.664Z,11.51
2019-02-25T11:43:21.619Z,11.45
2019-02-25T11:46:24.404Z,11.52
2019-02-25T11:49:26.979Z,11.68
2019-02-25T11:52:29.608Z,11.96
2019-02-25T11:55:32.163Z,12.06
2019-02-25T11:58:34.753Z,12.27
2019-02-25T12:01:37.460Z,12.34
2019-02-25T12:04:40.211Z,12.21
2019-02-25T12:07:43.063Z,12.31
2019-02-25T12:10:45.628Z,12.20
2019-02-25T12:13:49.305Z,12.16
2019-02-25T12:16:51.929Z,12.21
2019-02-25T12:19:54.599Z,12.18
2019-02-25T12:22:57.157Z,12.27
2019-02-25T12:25:59.712Z,12.22
2019-02-25T12:29:10.615Z,12.23
2019-02-25T12:32:06.885Z,12.19
2019-02-25T12:35:09.739Z,12.33
2019-02-25T12:38:12.323Z,12.73
2019-02-25T12:41:15.023Z,12.85
2019-02-25T12:44:17.658Z,12.73
2019-02-25T12:47:23.632Z,12.63
2019-02-25T12:50:26.260Z,12.70
2019-02-25T12:53:28.920Z,12.59
2019-02-25T12:56:31.462Z,12.72
2019-02-25T12:59:34.024Z,12.74
2019-02-25T13:02:36.624Z,12.63
2019-02-25T13:05:39.258Z,12.94
2019-02-25T13:08:42.794Z,12.82
2019-02-25T13:11:45.570Z,12.87
2019-02-25T13:14:48.197Z,13.09
2019-02-25T13:17:51.078Z,13.26
2019-02-25T13:20:53.735Z,13.05
2019-02-25T13:23:56.949Z,13.12
2019-02-25T13:27:01.468Z,13.11
2019-02-25T13:30:07.682Z,12.97
2019-02-25T13:33:10.391Z,12.84
2019-02-25T13:36:13.200Z,13.04
2019-02-25T13:39:15.825Z,12.79
2019-02-25T13:42:18.648Z,12.69
2019-02-25T13:45:21.358Z,12.71
2019-02-25T13:48:24.057Z,12.63
2019-02-25T13:51:26.742Z,12.65
2019-02-25T13:54:29.578Z,12.63
2019-02-25T13:57:32.223Z,12.47
2019-02-25T14:00:36.523Z,12.32
2019-02-25T14:03:39.143Z,12.14
2019-02-25T14:06:42.132Z,12.05
2019-02-25T14:09:44.811Z,11.98
2019-02-25T14:12:47.697Z,11.98
2019-02-25T14:15:50.659Z,11.99
2019-02-25T14:18:53.308Z,12.05
2019-02-25T14:21:56.124Z,12.20
2019-02-25T14:24:58.915Z,12.01
2019-02-25T14:28:02.830Z,11.91
2019-02-25T14:31:06.370Z,12.28
2019-02-25T14:34:09.098Z,12.37
2019-02-25T14:37:13.408Z,12.26
2019-02-25T14:40:17.140Z,12.10
2019-02-25T14:43:22.725Z,12.12
2019-02-25T14:46:26.823Z,12.15
2019-02-25T14:49:30.132Z,11.96
2019-02-25T14:52:33.971Z,11.84
2019-02-25T14:55:36.708Z,11.88
2019-02-25T14:58:40.568Z,11.77
2019-02-25T15:01:44.078Z,11.72
2019-02-25T15:04:49.130Z,11.87
2019-02-25T15:07:53.379Z,11.89
2019-02-25T15:11:00.029Z,11.83
2019-02-25T15:14:00.967Z,11.74
2019-02-25T15:17:06.066Z,11.99
2019-02-25T15:20:10.482Z,11.68
2019-02-25T15:23:17.209Z,11.57
2019-02-25T15:26:21.534Z,11.31
2019-02-25T15:29:25.639Z,11.19
2019-02-25T15:32:29.535Z,11.07
2019-02-25T15:35:35.093Z,11.09
2019-02-25T15:38:38.892Z,11.02
2019-02-25T15:41:46.372Z,10.87
2019-02-25T15:44:51.269Z,10.83
2019-02-25T15:47:57.618Z,10.78
2019-02-25T15:51:00.773Z,10.63
2019-02-25T15:54:03.909Z,10.67
2019-02-25T15:57:06.548Z,10.54
2019-02-25T16:00:12.520Z,10.44
2019-02-25T16:03:16.367Z,10.46
2019-02-25T16:06:19.842Z,10.37
2019-02-25T16:09:25.467Z,10.23
2019-02-25T16:12:31.091Z,10.05
2019-02-25T16:15:34.244Z,9.97
2019-02-25T16:18:40.418Z,9.92
2019-02-25T16:21:43.877Z,9.84
2019-02-25T16:24:46.553Z,9.81
2019-02-25T16:27:50.475Z,9.64
2019-02-25T16:30:54.192Z,10.03
2019-02-25T16:33:57.683Z,9.75
2019-02-25T16:37:02.498Z,9.61
2019-02-25T16:40:08.291Z,9.57
2019-02-25T16:43:12.943Z,9.44
2019-02-25T16:46:16.264Z,9.42
2019-02-25T16:49:20.222Z,9.49
2019-02-25T16:52:24.765Z,9.32
2019-02-25T16:55:27.927Z,9.22
2019-02-25T16:58:34.165Z,9.02
2019-02-25T17:01:39.302Z,9.00
2019-02-25T17:04:41.559Z,8.97
2019-02-25T17:07:44.360Z,8.88
2019-02-25T17:10:51.228Z,8.78
2019-02-25T17:13:55.127Z,8.74
2019-02-25T17:16:58.597Z,8.68
2019-02-25T17:20:01.293Z,8.66
2019-02-25T17:23:04.024Z,8.49
2019-02-25T17:26:07.805Z,8.59
2019-02-25T17:29:11.314Z,8.49
2019-02-25T17:32:16.769Z,8.48
2019-02-25T17:35:20.863Z,8.47
2019-02-25T17:38:24.623Z,8.36
2019-02-25T17:41:28.512Z,8.32
2019-02-25T17:44:32.136Z,8.36
2019-02-25T17:47:39.698Z,8.36
2019-02-25T17:50:43.007Z,8.39
2019-02-25T17:53:46.408Z,8.42
2019-02-25T17:56:51.855Z,8.43
2019-02-25T17:59:55.348Z,8.45
2019-02-25T18:02:59.330Z,8.32
2019-02-25T18:06:05.094Z,8.36
2019-02-25T18:09:08.812Z,8.34
2019-02-25T18:12:12.963Z,8.32
2019-02-25T18:15:19.792Z,8.37
2019-02-25T18:18:24.518Z,8.30
2019-02-25T18:21:30.198Z,8.23
2019-02-25T18:24:33.003Z,8.20
2019-02-25T18:27:39.011Z,8.18
2019-02-25T18:30:40.299Z,8.20
2019-02-25T18:33:44.080Z,8.19
2019-02-25T18:36:49.035Z,8.14
2019-02-25T18:39:54.374Z,8.13
2019-02-25T18:43:00.240Z,8.09
2019-02-25T18:46:04.921Z,8.11
2019-02-25T18:49:09.483Z,7.98
2019-02-25T18:52:11.981Z,7.87
2019-02-25T18:55:15.628Z,7.85
2019-02-25T18:58:18.262Z,7.77
2019-02-25T19:01:21.244Z,7.82
2019-02-25T19:04:24.066Z,7.78
2019-02-25T19:07:27.300Z,7.71
2019-02-25T19:10:31.304Z,7.68
2019-02-25T19:13:34.332Z,7.72
2019-02-25T19:16:38.097Z,7.81
2019-02-25T19:19:42.459Z,7.84
2019-02-25T19:22:45.979Z,7.81
2019-02-25T19:25:50.149Z,7.85
2019-02-25T19:28:54.605Z,7.83
2019-02-25T19:32:00.638Z,7.84
2019-02-25T19:35:04.746Z,7.84
2019-02-25T19:38:07.854Z,7.75
2019-02-25T19:41:15.137Z,7.84
2019-02-25T19:44:17.128Z,7.84
2019-02-25T19:47:19.841Z,7.82
2019-02-25T19:50:22.844Z,7.84
2019-02-25T19:53:25.722Z,7.68
2019-02-25T19:56:28.649Z,7.69
2019-02-25T19:59:31.354Z,7.86
2019-02-25T20:02:35.181Z,7.74
2019-02-25T20:05:41.661Z,7.67
2019-02-25T20:08:43.302Z,7.59
2019-02-25T20:11:46.005Z,7.70
2019-02-25T20:14:48.819Z,7.92
2019-02-25T20:17:53.335Z,7.69
2019-02-25T20:20:57.602Z,7.61
2019-02-25T20:24:00.874Z,7.65
2019-02-25T20:27:05.223Z,7.59
2019-02-25T20:30:10.946Z,7.37
2019-02-25T20:33:13.550Z,7.46
2019-02-25T20:36:19.246Z,7.42
2019-02-25T20:39:20.943Z,7.45
2019-02-25T20:42:24.405Z,7.53
2019-02-25T20:45:31.052Z,7.50
2019-02-25T20:48:34.071Z,7.53
2019-02-25T20:51:36.835Z,7.58
2019-02-25T20:54:41.607Z,7.62
2019-02-25T20:57:44.415Z,7.52
2019-02-25T21:00:49.189Z,7.45
2019-02-25T21:03:54.724Z,7.52
2019-02-25T21:06:58.856Z,7.59
2019-02-25T21:10:03.524Z,7.59
2019-02-25T21:13:08.162Z,7.39
2019-02-25T21:16:10.827Z,7.44
2019-02-25T21:19:15.578Z,7.27
2019-02-25T21:22:29.483Z,7.24
2019-02-25T21:25:38.116Z,7.17
2019-02-25T21:28:43.066Z,7.13
2019-02-25T21:31:49.649Z,7.18
2019-02-25T21:34:56.056Z,7.11
2019-02-25T21:38:03.342Z,7.17
2019-02-25T21:41:13.689Z,7.22
2019-02-25T21:44:21.323Z,7.24
2019-02-25T21:47:28.601Z,7.24
2019-02-25T21:50:35.907Z,7.20
2019-02-25T21:53:41.911Z,7.53
2019-02-25T21:56:47.217Z,7.38
2019-02-25T21:59:54.171Z,7.43
2019-02-25T22:03:10.243Z,7.18
2019-02-25T22:06:13.907Z,7.08
2019-02-25T22:09:35.492Z,7.00
2019-02-25T22:12:26.848Z,7.01
2019-02-25T22:15:34.407Z,6.97
2019-02-25T22:18:41.060Z,6.93
2019-02-25T22:21:46.384Z,6.84
2019-02-25T22:24:51.792Z,6.83
2019-02-25T22:27:58.912Z,6.87
2019-02-25T22:31:08.297Z,6.86
2019-02-25T22:34:13.135Z,6.89
2019-02-25T22:37:22.819Z,6.90
2019-02-25T22:40:30.066Z,6.86
2019-02-25T22:43:37.260Z,6.82
2019-02-25T22:46:49.362Z,6.78
2019-02-25T22:49:55.417Z,6.76
2019-02-25T22:53:01.628Z,6.75
2019-02-25T22:56:11.500Z,6.68
2019-02-25T22:59:14.595Z,6.58
2019-02-25T23:02:19.958Z,6.63
2019-02-25T23:05:25.599Z,6.72
2019-02-25T23:08:31.885Z,6.64
2019-02-25T23:11:39.863Z,6.70
2019-02-25T23:14:44.135Z,6.87
2019-02-25T23:17:49.439Z,6.70
2019-02-25T23:20:59.674Z,6.79
2019-02-25T23:24:05.697Z,6.65
2019-02-25T23:27:11.110Z,6.66
2019-02-25T23:30:16.550Z,6.84
2019-02-25T23:33:22.803Z,6.91
2019-02-25T23:36:28.988Z,6.93
2019-02-25T23:39:36.259Z,6.81
2019-02-25T23:42:41.960Z,6.59
2019-02-25T23:45:48.325Z,6.66
2019-02-25T23:48:55.632Z,6.69
2019-02-25T23:52:00.616Z,6.60
2019-02-25T23:55:07.295Z,6.60
2019-02-25T23:58:14.358Z,6.79
